X  Chiuso Dati meteorologici dell'aviazione (METAR)     EHGG Eelde Airport
Temperatura
15°C Temperatura
14°C Punto di rugiada
94% Umidità



Vento
3 M/S
6 MPH
10 KM/O
5 KTS



40°
NE
Condizioni attuali

Chiaro Chiaro
Pressione 1020.92 (hPa) - 30.15 (inHg)
Visibilità 6.2 (miglio) - 10 (km)
Aeroporto
Codice-Aeroporto EHGG

Posizione: Eelde Airport
Distanza: 47 (km)

Metar:
EHGG 120125Z AUTO 04005KT 9999 NCD 15/14 Q1021

Ore: 12-08-2022 03:25 CEST